Time;durP1;ratioP1;P1;durP2;ratioP2;P2;SDS_P1;SDS_P2;PMS_P1;PMS_P2;Temp;Humidity;BMP_temperature;BMP_pressure;BME280_temperature;BME280_humidity;BME280_pressure;Samples;Min_cycle;Max_cycle;Signal;HPM_P1;HPM_P2
2023/07/13 00:02:19;;;;;;;1.42;1.23;;;21.50;99.30;;;;;;4976806;28;20035;-57
2023/07/13 00:04:44;;;;;;;2.10;1.10;;;21.50;98.50;;;;;;4977398;28;20050;-57
2023/07/13 00:07:10;;;;;;;2.78;1.40;;;21.50;98.30;;;;;;4976972;28;20085;-59
2023/07/13 00:09:36;;;;;;;2.30;1.15;;;21.50;98.20;;;;;;4973196;28;20023;-57
2023/07/13 00:12:02;;;;;;;3.35;1.30;;;21.50;98.20;;;;;;4976812;28;20414;-58
2023/07/13 00:14:28;;;;;;;2.00;1.10;;;21.60;98.50;;;;;;4976090;28;20018;-58
2023/07/13 00:16:55;;;;;;;1.63;1.20;;;21.60;98.60;;;;;;4976090;28;20015;-57
2023/07/13 00:19:21;;;;;;;1.88;1.27;;;21.50;99.40;;;;;;4975573;28;20089;-58
2023/07/13 00:21:47;;;;;;;2.53;1.38;;;21.60;98.30;;;;;;4976994;28;20030;-57
2023/07/13 00:24:15;;;;;;;2.60;1.27;;;21.60;98.10;;;;;;4976638;28;20026;-57
2023/07/13 00:26:45;;;;;;;4.10;1.10;;;21.60;98.40;;;;;;4976455;28;20034;-58
2023/07/13 00:29:11;;;;;;;1.15;1.05;;;21.60;99.00;;;;;;4976726;28;20070;-59
2023/07/13 00:31:37;;;;;;;1.17;0.95;;;21.60;99.60;;;;;;4976439;28;20030;-57
2023/07/13 00:34:03;;;;;;;3.10;1.20;;;21.60;99.70;;;;;;4975915;28;20422;-57
2023/07/13 00:36:30;;;;;;;2.40;1.48;;;21.60;99.40;;;;;;4978386;28;20113;-57
2023/07/13 00:38:56;;;;;;;3.42;1.20;;;21.60;98.40;;;;;;4977884;28;20030;-57
2023/07/13 00:41:22;;;;;;;1.77;1.20;;;21.60;98.30;;;;;;4974469;28;20039;-57
2023/07/13 00:43:47;;;;;;;2.25;1.25;;;21.60;98.50;;;;;;4975313;28;20027;-57
2023/07/13 00:46:24;;;;;;;1.90;0.98;;;21.60;98.90;;;;;;4976994;28;20033;-59
2023/07/13 00:48:50;;;;;;;2.38;1.20;;;21.60;99.70;;;;;;4975933;28;20035;-59
2023/07/13 00:51:21;;;;;;;3.50;1.48;;;21.60;99.90;;;;;;4977311;28;20162;-59
2023/07/13 00:53:47;;;;;;;;;;;21.60;99.90;;;;;;4978773;28;20034;-58
2023/07/13 00:56:13;;;;;;;1.30;1.20;;;21.60;99.80;;;;;;4975895;28;19910;-58
2023/07/13 00:58:39;;;;;;;4.68;1.90;;;21.50;99.80;;;;;;4983023;28;20629;-58
2023/07/13 01:01:04;;;;;;;2.78;1.23;;;21.50;99.90;;;;;;4979725;28;20046;-57
2023/07/13 01:03:30;;;;;;;2.70;1.38;;;21.40;99.90;;;;;;4980263;28;20053;-59
2023/07/13 01:05:56;;;;;;;1.23;1.10;;;21.30;99.90;;;;;;4976902;28;20471;-59
2023/07/13 01:08:22;;;;;;;2.20;1.40;;;21.20;99.90;;;;;;4980522;28;20041;-58
2023/07/13 01:10:55;;;;;;;7.20;1.38;;;21.00;99.90;;;;;;4980560;28;20026;-58
2023/07/13 01:13:20;;;;;;;2.45;1.20;;;20.90;99.90;;;;;;4980078;28;20785;-57
2023/07/13 01:15:49;;;;;;;3.92;1.45;;;20.80;99.90;;;;;;4981647;28;20117;-60
2023/07/13 01:18:20;;;;;;;3.17;1.33;;;20.70;99.90;;;;;;4980560;28;20525;-58
2023/07/13 01:20:56;;;;;;;1.70;1.27;;;20.70;99.90;;;;;;4980990;28;20049;-59
2023/07/13 01:23:24;;;;;;;2.88;1.48;;;20.60;99.90;;;;;;4978853;28;20033;-58
2023/07/13 01:25:50;;;;;;;2.97;1.63;;;20.60;99.90;;;;;;4975954;28;20054;-58
2023/07/13 01:28:16;;;;;;;3.65;1.40;;;20.50;99.90;;;;;;4979595;28;20066;-59
2023/07/13 01:30:45;;;;;;;2.03;1.40;;;20.50;99.90;;;;;;4979073;28;20031;-58
2023/07/13 01:33:16;;;;;;;1.80;0.90;;;20.40;99.90;;;;;;4983670;28;20038;-58
2023/07/13 01:35:43;;;;;;;1.50;1.40;;;20.40;99.90;;;;;;4979512;28;20086;-57
2023/07/13 01:38:09;;;;;;;5.20;1.55;;;20.30;99.90;;;;;;4979354;28;20042;-59
2023/07/13 01:40:37;;;;;;;1.92;1.42;;;20.30;99.90;;;;;;4981210;28;20585;-56
2023/07/13 01:43:03;;;;;;;2.95;1.40;;;20.20;99.90;;;;;;4979631;28;20049;-56
2023/07/13 01:45:29;;;;;;;3.03;1.48;;;20.10;99.90;;;;;;4980615;28;20038;-58
2023/07/13 01:47:55;;;;;;;5.28;1.67;;;20.10;99.90;;;;;;4979475;28;20409;-59
2023/07/13 01:50:21;;;;;;;3.40;1.42;;;20.00;99.90;;;;;;4978486;28;20147;-57
2023/07/13 01:52:47;;;;;;;1.83;1.20;;;20.00;99.90;;;;;;4981309;28;20030;-57
2023/07/13 01:55:13;;;;;;;2.05;1.50;;;19.90;99.90;;;;;;4981539;28;20407;-57
2023/07/13 01:57:39;;;;;;;1.65;1.30;;;19.80;99.90;;;;;;4977111;28;20046;-58
2023/07/13 02:00:07;;;;;;;2.47;1.60;;;19.70;99.90;;;;;;4980098;28;20403;-57
2023/07/13 02:02:32;;;;;;;1.50;1.30;;;19.70;99.90;;;;;;4980744;28;20499;-57
2023/07/13 02:04:58;;;;;;;2.03;1.63;;;19.60;99.90;;;;;;4983073;28;20041;-57
2023/07/13 02:07:24;;;;;;;2.00;1.48;;;19.50;99.90;;;;;;4978832;28;20174;-57
2023/07/13 02:09:49;;;;;;;2.35;1.58;;;19.40;99.90;;;;;;4978741;28;20057;-57
2023/07/13 02:12:15;;;;;;;2.22;1.52;;;19.40;99.90;;;;;;4980514;28;20109;-59
2023/07/13 02:14:41;;;;;;;2.33;1.40;;;19.30;99.90;;;;;;4977885;28;20035;-56
2023/07/13 02:17:06;;;;;;;1.80;1.50;;;19.30;99.90;;;;;;4979940;28;20029;-57
2023/07/13 02:19:32;;;;;;;3.13;1.50;;;19.20;99.90;;;;;;4980444;28;20046;-59
2023/07/13 02:21:58;;;;;;;3.17;1.40;;;19.20;99.90;;;;;;4978220;28;20031;-56
2023/07/13 02:24:23;;;;;;;3.05;1.70;;;19.10;99.90;;;;;;4977733;28;20038;-57
2023/07/13 02:26:49;;;;;;;4.97;1.73;;;18.90;99.90;;;;;;4977956;28;20118;-59
2023/07/13 02:29:15;;;;;;;1.90;1.38;;;18.80;99.90;;;;;;4976414;28;20034;-59
2023/07/13 02:31:40;;;;;;;1.60;1.40;;;18.70;99.90;;;;;;4974370;28;20041;-58
2023/07/13 02:34:06;;;;;;;2.47;1.50;;;18.70;99.90;;;;;;4976223;28;20035;-57
2023/07/13 02:36:32;;;;;;;2.45;1.50;;;18.60;99.90;;;;;;4975035;28;20066;-56
2023/07/13 02:39:02;;;;;;;2.08;1.40;;;18.50;99.90;;;;;;4978239;28;20862;-56
2023/07/13 02:41:28;;;;;;;2.38;1.50;;;18.40;99.90;;;;;;4979021;28;20035;-57
2023/07/13 02:43:53;;;;;;;5.05;1.60;;;18.40;99.90;;;;;;4978922;28;20399;-58
2023/07/13 02:46:19;;;;;;;2.33;1.60;;;18.30;99.90;;;;;;4978359;28;20121;-58
2023/07/13 02:48:45;;;;;;;4.38;1.80;;;18.30;99.90;;;;;;4977282;28;20041;-58
2023/07/13 02:51:11;;;;;;;1.70;1.60;;;18.20;99.90;;;;;;4978992;28;20592;-59
2023/07/13 02:53:37;;;;;;;2.63;1.38;;;18.20;99.90;;;;;;4980286;28;20047;-59
2023/07/13 02:56:04;;;;;;;2.85;1.70;;;18.20;99.90;;;;;;4983340;28;20026;-56
2023/07/13 02:58:30;;;;;;;1.80;1.70;;;18.20;99.90;;;;;;4976063;28;20030;-57
2023/07/13 03:00:57;;;;;;;2.67;1.75;;;18.20;99.90;;;;;;4980026;28;20049;-58
2023/07/13 03:03:23;;;;;;;2.55;1.63;;;18.20;99.90;;;;;;4980042;28;20030;-57
2023/07/13 03:05:59;;;;;;;4.35;2.00;;;18.20;99.90;;;;;;4977043;28;20053;-57
2023/07/13 03:08:26;;;;;;;2.53;1.60;;;18.20;99.90;;;;;;4977557;28;20080;-59
2023/07/13 03:11:05;;;;;;;2.70;1.70;;;18.30;99.90;;;;;;4979138;28;20019;-59
2023/07/13 03:13:31;;;;;;;2.72;1.88;;;18.30;99.90;;;;;;4977799;28;20034;-57
2023/07/13 03:15:57;;;;;;;1.75;1.63;;;18.20;99.90;;;;;;4977613;28;20033;-58
2023/07/13 03:18:23;;;;;;;3.75;1.60;;;18.20;99.90;;;;;;4977713;28;20073;-57
2023/07/13 03:20:52;;;;;;;2.92;2.13;;;18.10;99.90;;;;;;4974864;28;20045;-58
2023/07/13 03:23:18;;;;;;;2.47;1.63;;;18.00;99.90;;;;;;4980343;28;20039;-57
2023/07/13 03:25:44;;;;;;;1.75;1.30;;;18.00;99.90;;;;;;4994779;28;20023;-56
2023/07/13 03:28:11;;;;;;;3.45;2.28;;;17.90;99.90;;;;;;4982127;28;20132;-56
2023/07/13 03:30:37;;;;;;;2.90;1.70;;;17.90;99.90;;;;;;4974675;28;20039;-58
2023/07/13 03:33:03;;;;;;;4.45;2.05;;;17.90;99.90;;;;;;4980655;28;20503;-57
2023/07/13 03:35:29;;;;;;;3.50;1.90;;;17.90;99.90;;;;;;4977420;28;20066;-58
2023/07/13 03:37:54;;;;;;;1.92;1.70;;;17.90;99.90;;;;;;4977968;28;20031;-58
2023/07/13 03:40:21;;;;;;;6.20;2.30;;;17.80;99.90;;;;;;4973122;28;20592;-58
2023/07/13 03:42:46;;;;;;;2.40;2.13;;;17.80;99.90;;;;;;4976515;28;20092;-56
2023/07/13 03:45:12;;;;;;;2.25;1.65;;;17.80;99.90;;;;;;4979288;28;20042;-58
2023/07/13 03:47:37;;;;;;;2.25;1.73;;;17.70;99.90;;;;;;4977666;28;20030;-58
2023/07/13 03:50:03;;;;;;;2.83;2.03;;;17.70;99.90;;;;;;4978506;28;20030;-57
2023/07/13 03:52:29;;;;;;;2.08;1.63;;;17.70;99.90;;;;;;4977148;28;20078;-58
2023/07/13 03:54:55;;;;;;;1.90;1.55;;;17.80;99.90;;;;;;4979366;28;20494;-57
2023/07/13 03:57:20;;;;;;;1.65;1.52;;;17.80;99.90;;;;;;4979602;28;20807;-57
2023/07/13 03:59:46;;;;;;;3.85;1.70;;;17.80;99.90;;;;;;4975180;28;20466;-59
2023/07/13 04:02:11;;;;;;;2.65;1.90;;;17.90;99.90;;;;;;4978176;28;20105;-58
2023/07/13 04:04:40;;;;;;;1.92;1.65;;;17.90;99.90;;;;;;4974252;28;20060;-55
2023/07/13 04:07:07;;;;;;;2.55;1.80;;;18.00;99.90;;;;;;4977289;28;20130;-57
2023/07/13 04:09:32;;;;;;;2.28;1.60;;;17.90;99.90;;;;;;4976925;28;20125;-58
2023/07/13 04:11:58;;;;;;;4.18;1.50;;;17.90;99.90;;;;;;4977253;28;20162;-58
2023/07/13 04:14:23;;;;;;;2.47;2.08;;;17.90;99.90;;;;;;4975133;28;20031;-58
2023/07/13 04:16:49;;;;;;;2.17;1.73;;;17.90;99.90;;;;;;4974127;28;20404;-58
2023/07/13 04:19:15;;;;;;;3.17;1.85;;;17.80;99.90;;;;;;4976925;28;20050;-58
2023/07/13 04:21:40;;;;;;;2.97;1.60;;;17.80;99.90;;;;;;4974921;28;20125;-58
2023/07/13 04:24:07;;;;;;;2.47;1.75;;;17.80;99.90;;;;;;4976289;28;20035;-57
2023/07/13 04:26:35;;;;;;;2.40;2.05;;;17.80;99.90;;;;;;4974030;28;20620;-57
2023/07/13 04:29:03;;;;;;;2.13;1.67;;;17.70;99.90;;;;;;4978118;28;20026;-58
2023/07/13 04:31:29;;;;;;;4.32;1.98;;;17.70;99.90;;;;;;4976517;28;20290;-58
2023/07/13 04:33:55;;;;;;;2.38;2.05;;;17.70;99.90;;;;;;4972702;28;20053;-58
2023/07/13 04:36:21;;;;;;;2.30;1.63;;;17.70;99.90;;;;;;4978256;28;20069;-58
2023/07/13 04:38:46;;;;;;;3.30;1.63;;;17.70;99.90;;;;;;4976859;28;20403;-58
2023/07/13 04:41:14;;;;;;;1.85;1.67;;;17.70;99.90;;;;;;4978183;28;20034;-59
2023/07/13 04:43:40;;;;;;;2.13;1.70;;;17.70;99.90;;;;;;4980202;28;20043;-58
2023/07/13 04:46:08;;;;;;;3.53;1.90;;;17.70;99.90;;;;;;4979168;28;20786;-59
2023/07/13 04:48:34;;;;;;;3.20;1.88;;;17.80;99.90;;;;;;4979406;28;20442;-59
2023/07/13 04:51:01;;;;;;;3.55;1.90;;;17.80;99.90;;;;;;4975470;28;20034;-57
2023/07/13 04:53:27;;;;;;;2.65;1.73;;;17.90;99.90;;;;;;4976641;28;20538;-59
2023/07/13 04:55:53;;;;;;;5.28;2.15;;;18.00;99.90;;;;;;4976398;28;20438;-57
2023/07/13 04:58:19;;;;;;;3.20;1.65;;;18.10;99.90;;;;;;4976140;28;20038;-56
2023/07/13 05:00:44;;;;;;;2.38;1.50;;;18.10;99.90;;;;;;4974433;28;20065;-57
2023/07/13 05:03:10;;;;;;;2.13;1.80;;;18.20;99.90;;;;;;4977032;28;20042;-58
2023/07/13 05:05:36;;;;;;;2.28;1.67;;;18.30;99.90;;;;;;4974661;28;20030;-57
2023/07/13 05:08:02;;;;;;;3.00;1.80;;;18.40;99.90;;;;;;4974619;28;20030;-58
2023/07/13 05:10:28;;;;;;;3.35;1.55;;;18.50;99.90;;;;;;4976517;28;20075;-57
2023/07/13 05:12:53;;;;;;;2.45;1.67;;;18.60;99.90;;;;;;4976457;28;20125;-56
2023/07/13 05:15:22;;;;;;;3.85;1.50;;;18.70;99.90;;;;;;4977271;28;20035;-58
2023/07/13 05:17:48;;;;;;;3.88;1.85;;;18.80;99.90;;;;;;4972411;28;20038;-57
2023/07/13 05:20:15;;;;;;;2.35;1.45;;;18.90;99.90;;;;;;4973750;28;20041;-59
2023/07/13 05:22:41;;;;;;;2.05;1.40;;;19.00;99.90;;;;;;4979402;28;20034;-58
2023/07/13 05:25:07;;;;;;;2.20;1.50;;;19.10;99.90;;;;;;4976721;28;20065;-58
2023/07/13 05:27:34;;;;;;;3.95;1.52;;;19.30;99.90;;;;;;4975872;28;20030;-58
2023/07/13 05:30:00;;;;;;;4.32;1.48;;;19.50;99.90;;;;;;4977578;28;20038;-58
2023/07/13 05:32:26;;;;;;;1.77;1.50;;;19.60;99.90;;;;;;4975538;28;20102;-58
2023/07/13 05:34:52;;;;;;;2.78;1.50;;;19.80;99.90;;;;;;4977243;28;20173;-58
2023/07/13 05:37:18;;;;;;;4.38;1.10;;;19.80;99.90;;;;;;4982990;28;20427;-57
2023/07/13 05:39:43;;;;;;;6.75;1.25;;;19.80;99.90;;;;;;4978596;28;20023;-57
2023/07/13 05:42:09;;;;;;;3.03;1.30;;;19.90;99.90;;;;;;4977560;28;20042;-57
2023/07/13 05:44:35;;;;;;;2.00;1.40;;;19.90;99.90;;;;;;4982804;28;20026;-58
2023/07/13 05:47:00;;;;;;;1.40;1.20;;;20.00;99.90;;;;;;4982151;28;20078;-56
2023/07/13 05:49:26;;;;;;;1.92;1.20;;;20.10;99.90;;;;;;4982358;28;20057;-58
2023/07/13 05:51:52;;;;;;;2.92;1.13;;;20.20;99.90;;;;;;4982656;28;20563;-57
2023/07/13 05:54:17;;;;;;;2.33;1.38;;;20.30;99.90;;;;;;4981672;28;20055;-57
2023/07/13 05:56:43;;;;;;;1.38;1.00;;;20.40;99.90;;;;;;4982930;28;20038;-58
2023/07/13 05:59:08;;;;;;;2.58;1.00;;;20.60;99.90;;;;;;4984700;28;20479;-59
2023/07/13 06:01:34;;;;;;;1.48;0.90;;;20.80;99.90;;;;;;4981576;28;20035;-58
2023/07/13 06:04:00;;;;;;;4.30;0.98;;;21.00;99.90;;;;;;4984668;28;20031;-56
2023/07/13 06:06:25;;;;;;;1.55;0.90;;;21.10;98.50;;;;;;4983376;28;20033;-59
2023/07/13 06:08:51;;;;;;;2.80;1.35;;;21.20;98.00;;;;;;4981847;28;20392;-59
2023/07/13 06:11:23;;;;;;;1.98;1.10;;;21.20;97.00;;;;;;4982767;28;20023;-58
2023/07/13 06:13:49;;;;;;;5.70;1.10;;;21.20;96.50;;;;;;4983482;28;20027;-59
2023/07/13 06:16:15;;;;;;;3.35;1.30;;;21.20;95.90;;;;;;4982167;28;20089;-57
2023/07/13 06:18:42;;;;;;;2.58;1.05;;;21.20;94.00;;;;;;4979692;28;20035;-58
2023/07/13 06:21:19;;;;;;;8.27;1.08;;;21.20;93.70;;;;;;4982188;28;20060;-58
2023/07/13 06:23:47;;;;;;;3.30;1.15;;;21.10;93.30;;;;;;4981413;28;20062;-58
2023/07/13 06:26:13;;;;;;;4.80;1.10;;;21.10;93.10;;;;;;4979784;28;20025;-59
2023/07/13 06:28:39;;;;;;;2.05;0.85;;;21.10;91.60;;;;;;4983579;28;20034;-57
2023/07/13 06:31:07;;;;;;;2.17;1.20;;;21.10;91.20;;;;;;4980532;28;20032;-58
2023/07/13 06:33:33;;;;;;;7.95;1.17;;;21.10;91.40;;;;;;4981032;28;20026;-56
2023/07/13 06:35:59;;;;;;;1.88;1.05;;;21.00;91.00;;;;;;4980451;28;20841;-55
2023/07/13 06:38:24;;;;;;;2.63;1.23;;;20.90;90.10;;;;;;4981729;28;20030;-56
2023/07/13 06:40:50;;;;;;;1.90;0.90;;;20.80;89.80;;;;;;4983379;28;20022;-57
2023/07/13 06:43:16;;;;;;;2.35;1.10;;;20.80;89.30;;;;;;4980787;28;20070;-57
2023/07/13 06:45:49;;;;;;;2.67;0.90;;;20.80;88.50;;;;;;4980690;28;20671;-58
2023/07/13 06:48:15;;;;;;;2.13;1.10;;;20.70;88.50;;;;;;4981338;28;20053;-57
2023/07/13 06:50:42;;;;;;;1.92;1.00;;;20.70;88.50;;;;;;4982446;28;20034;-56
2023/07/13 06:53:08;;;;;;;3.72;1.10;;;20.70;87.80;;;;;;4982739;28;20109;-55
2023/07/13 06:55:33;;;;;;;2.10;1.05;;;20.60;87.20;;;;;;4975904;28;20059;-56
2023/07/13 06:57:59;;;;;;;3.92;1.10;;;20.50;87.50;;;;;;4974831;28;20658;-56
2023/07/13 07:00:25;;;;;;;3.00;0.80;;;20.40;87.20;;;;;;4977818;28;20041;-56
2023/07/13 07:02:51;;;;;;;4.68;1.15;;;20.40;87.50;;;;;;4978941;28;20069;-58
2023/07/13 07:05:16;;;;;;;6.63;1.20;;;20.40;87.40;;;;;;4978835;28;20414;-56
2023/07/13 07:07:42;;;;;;;2.25;1.10;;;20.40;90.10;;;;;;4975541;28;20034;-57
2023/07/13 07:10:08;;;;;;;2.22;1.02;;;20.40;88.00;;;;;;4977696;28;20120;-57
2023/07/13 07:12:34;;;;;;;1.63;0.90;;;20.40;87.70;;;;;;4976611;28;20408;-58
2023/07/13 07:14:59;;;;;;;2.08;1.10;;;20.50;87.30;;;;;;4977707;28;20039;-58
2023/07/13 07:17:26;;;;;;;3.30;1.10;;;20.60;86.50;;;;;;4978004;28;20037;-57
2023/07/13 07:19:53;;;;;;;7.55;1.20;;;20.60;85.40;;;;;;4985534;28;20034;-58
2023/07/13 07:22:20;;;;;;;2.05;1.10;;;20.70;86.40;;;;;;4973509;28;20428;-57
2023/07/13 07:24:46;;;;;;;2.38;0.93;;;20.80;86.00;;;;;;4979482;28;20066;-57
2023/07/13 07:27:11;;;;;;;3.42;1.20;;;21.00;86.20;;;;;;4977374;28;20104;-56
2023/07/13 07:29:37;;;;;;;5.80;1.27;;;21.10;85.30;;;;;;4976893;28;20030;-58
2023/07/13 07:32:03;;;;;;;3.25;0.85;;;21.20;85.20;;;;;;4978660;28;20019;-57
2023/07/13 07:34:29;;;;;;;2.20;1.05;;;21.40;85.20;;;;;;4977176;28;20777;-57
2023/07/13 07:36:56;;;;;;;3.25;1.00;;;21.50;83.60;;;;;;4978587;28;20033;-57
2023/07/13 07:39:22;;;;;;;2.25;1.10;;;21.60;84.00;;;;;;4979455;28;20023;-56
2023/07/13 07:41:47;;;;;;;3.03;1.10;;;21.80;83.30;;;;;;4977524;28;20039;-56
2023/07/13 07:44:13;;;;;;;3.75;1.00;;;22.00;80.40;;;;;;4978728;28;20455;-58
2023/07/13 07:46:40;;;;;;;2.05;0.90;;;22.10;79.20;;;;;;4976569;28;20049;-57
2023/07/13 07:49:06;;;;;;;4.07;1.00;;;22.30;77.60;;;;;;4978731;28;20031;-57
2023/07/13 07:51:32;;;;;;;2.42;1.00;;;22.50;77.50;;;;;;4976599;28;20410;-58
2023/07/13 07:53:57;;;;;;;3.92;1.00;;;22.60;76.60;;;;;;4979120;28;20027;-57
2023/07/13 07:56:23;;;;;;;3.05;1.02;;;22.80;75.90;;;;;;4976747;28;20030;-58
2023/07/13 07:58:48;;;;;;;1.77;0.90;;;22.80;75.70;;;;;;4978901;28;20055;-58
2023/07/13 08:01:15;;;;;;;7.22;1.35;;;22.90;75.10;;;;;;4977389;28;20045;-58
2023/07/13 08:03:41;;;;;;;5.55;1.33;;;22.90;75.20;;;;;;4977544;28;20034;-58
2023/07/13 08:06:07;;;;;;;2.95;1.02;;;22.90;76.40;;;;;;4976577;28;20038;-56
2023/07/13 08:08:32;;;;;;;9.43;1.50;;;22.90;74.70;;;;;;4976682;28;20058;-57
2023/07/13 08:11:03;;;;;;;1.95;0.95;;;22.70;74.90;;;;;;4979080;28;20037;-57
2023/07/13 08:13:28;;;;;;;4.15;1.27;;;22.60;74.90;;;;;;4978104;28;20030;-57
2023/07/13 08:15:54;;;;;;;2.55;1.20;;;22.40;74.50;;;;;;4975200;28;20081;-57
2023/07/13 08:18:20;;;;;;;2.88;0.90;;;22.20;75.90;;;;;;4978929;28;20054;-57
2023/07/13 08:20:45;;;;;;;4.00;1.10;;;22.10;76.50;;;;;;4978216;28;20505;-57
2023/07/13 08:23:11;;;;;;;3.38;1.00;;;21.90;77.30;;;;;;4976377;28;20058;-58
2023/07/13 08:25:36;;;;;;;1.83;1.00;;;22.00;77.70;;;;;;4976905;28;20035;-56
2023/07/13 08:28:03;;;;;;;2.17;1.02;;;22.10;78.80;;;;;;4977015;28;20062;-57
2023/07/13 08:30:29;;;;;;;3.40;1.40;;;22.30;78.40;;;;;;4979149;28;20420;-57
2023/07/13 08:32:55;;;;;;;3.60;1.08;;;22.40;78.50;;;;;;4976180;28;20158;-57
2023/07/13 08:35:21;;;;;;;3.50;1.30;;;22.40;76.10;;;;;;4971507;28;20031;-58
2023/07/13 08:37:46;;;;;;;3.55;1.48;;;22.40;76.20;;;;;;4975331;28;20022;-58
2023/07/13 08:40:12;;;;;;;2.95;0.90;;;22.50;76.60;;;;;;4979194;28;20506;-58
2023/07/13 08:42:55;;;;;;;5.85;1.30;;;22.50;75.60;;;;;;4976703;28;20027;-58
2023/07/13 08:45:23;;;;;;;3.75;0.93;;;22.50;73.90;;;;;;4976110;28;20176;-59
2023/07/13 08:48:09;;;;;;;4.22;1.20;;;22.50;73.70;;;;;;4977419;28;20073;-58
2023/07/13 08:50:54;;;;;;;2.13;1.13;;;22.50;73.30;;;;;;4976870;28;20027;-56
2023/07/13 08:53:23;;;;;;;1.75;1.00;;;22.50;73.60;;;;;;4974442;28;20081;-57
2023/07/13 08:55:56;;;;;;;1.73;0.90;;;22.40;73.50;;;;;;4974050;28;20046;-56
2023/07/13 08:58:28;;;;;;;2.88;1.05;;;22.40;74.00;;;;;;4976422;28;20038;-57
2023/07/13 09:01:12;;;;;;;3.05;0.95;;;22.40;72.30;;;;;;4977183;28;20496;-56
2023/07/13 09:04:01;;;;;;;2.95;0.95;;;22.40;70.90;;;;;;4976769;28;20038;-55
2023/07/13 09:06:36;;;;;;;1.65;0.90;;;22.50;69.30;;;;;;4964200;28;20086;-57
2023/07/13 09:09:20;;;;;;;1.33;0.80;;;22.50;68.70;;;;;;4977722;28;20122;-57
2023/07/13 09:11:54;;;;;;;1.95;0.90;;;22.70;68.10;;;;;;4976364;28;20054;-57
2023/07/13 09:14:44;;;;;;;1.55;0.93;;;23.00;67.10;;;;;;4973904;28;20027;-58
2023/07/13 09:17:18;;;;;;;2.00;1.02;;;23.20;65.70;;;;;;4977850;28;20162;-56
2023/07/13 09:19:49;;;;;;;3.17;0.88;;;23.20;65.50;;;;;;4979767;28;20035;-58
2023/07/13 09:22:19;;;;;;;1.42;0.73;;;23.10;65.30;;;;;;4980305;28;20066;-57
2023/07/13 09:25:22;;;;;;;1.90;0.75;;;22.90;63.90;;;;;;4980073;28;20027;-57
2023/07/13 09:27:48;;;;;;;1.90;0.70;;;22.90;62.80;;;;;;4979006;28;20085;-58
2023/07/13 09:30:13;;;;;;;2.75;0.88;;;23.00;59.30;;;;;;4960869;28;20031;-57
2023/07/13 09:32:43;;;;;;;3.65;0.80;;;23.10;59.60;;;;;;4986832;28;20471;-58
2023/07/13 09:35:13;;;;;;;2.42;0.80;;;23.30;60.50;;;;;;4983631;28;20110;-58
2023/07/13 09:37:41;;;;;;;1.13;0.70;;;23.50;59.40;;;;;;4977082;28;20034;-58
2023/07/13 09:40:18;;;;;;;2.15;0.80;;;23.60;58.10;;;;;;4978886;28;20031;-57
2023/07/13 09:42:43;;;;;;;1.13;0.80;;;23.40;58.00;;;;;;4977878;28;20027;-58
2023/07/13 09:45:09;;;;;;;0.75;0.68;;;23.50;59.70;;;;;;4979183;28;20656;-57
2023/07/13 09:47:39;;;;;;;1.23;0.77;;;23.60;58.70;;;;;;4979552;28;20022;-58
2023/07/13 09:50:14;;;;;;;1.20;0.75;;;23.70;57.90;;;;;;4979567;28;20037;-59
2023/07/13 09:52:45;;;;;;;1.40;0.70;;;23.90;57.20;;;;;;4977581;28;20038;-56
2023/07/13 09:55:30;;;;;;;;;;;24.00;55.50;;;;;;4979126;28;20112;-58
2023/07/13 09:57:55;;;;;;;1.35;0.75;;;24.10;55.50;;;;;;4979837;28;20400;-57
2023/07/13 10:00:27;;;;;;;1.05;0.70;;;24.30;56.10;;;;;;4976210;28;20039;-57
2023/07/13 10:03:33;;;;;;;2.15;0.88;;;24.30;54.20;;;;;;4974547;28;20388;-57
2023/07/13 10:06:12;;;;;;;2.75;0.60;;;24.60;54.90;;;;;;4982357;28;20399;-58
2023/07/13 10:08:38;;;;;;;1.08;0.60;;;24.80;53.50;;;;;;4981179;28;20069;-56
2023/07/13 10:11:17;;;;;;;6.63;0.70;;;25.00;53.80;;;;;;4980626;28;20497;-58
2023/07/13 10:13:48;;;;;;;4.72;0.90;;;25.40;52.20;;;;;;4983917;28;20042;-58
2023/07/13 10:16:15;;;;;;;5.35;0.98;;;25.50;51.70;;;;;;4982085;28;20113;-58
2023/07/13 10:18:43;;;;;;;4.07;0.80;;;25.50;52.10;;;;;;4978417;28;20083;-58
2023/07/13 10:21:21;;;;;;;1.88;0.70;;;25.40;50.60;;;;;;4983371;28;20450;-58
2023/07/13 10:23:58;;;;;;;2.72;0.90;;;25.30;50.70;;;;;;4978041;28;20062;-57
2023/07/13 10:26:32;;;;;;;1.40;0.60;;;25.30;51.50;;;;;;4978710;28;20027;-58
2023/07/13 10:29:04;;;;;;;1.55;0.52;;;25.30;49.90;;;;;;4980585;28;20026;-58
2023/07/13 10:31:30;;;;;;;0.70;0.50;;;25.20;50.90;;;;;;4979306;28;20045;-58
2023/07/13 10:33:56;;;;;;;1.70;0.60;;;25.30;50.90;;;;;;4980514;28;20033;-57
2023/07/13 10:36:45;;;;;;;1.50;0.50;;;25.40;50.50;;;;;;4979422;28;20022;-58
2023/07/13 10:39:25;;;;;;;1.42;0.60;;;25.60;50.40;;;;;;4977999;28;20026;-57
2023/07/13 10:41:57;;;;;;;0.70;0.45;;;25.70;49.10;;;;;;4979726;28;20035;-57
2023/07/13 10:44:28;;;;;;;0.75;0.40;;;25.80;49.20;;;;;;4980085;28;20022;-58
2023/07/13 10:47:01;;;;;;;1.88;0.80;;;25.80;48.30;;;;;;4979293;28;20032;-58
2023/07/13 10:49:30;;;;;;;3.35;0.50;;;25.90;49.10;;;;;;4978590;28;20058;-57
2023/07/13 10:51:56;;;;;;;2.30;0.50;;;26.00;47.70;;;;;;4978814;28;20109;-58
2023/07/13 10:54:30;;;;;;;1.17;0.50;;;25.90;47.60;;;;;;4979431;28;20238;-58
2023/07/13 10:57:41;;;;;;;1.85;0.60;;;25.80;47.40;;;;;;4975432;28;20085;-57
2023/07/13 11:00:17;;;;;;;0.80;0.50;;;25.70;47.90;;;;;;5001198;28;20037;-57
2023/07/13 11:02:43;;;;;;;1.17;0.50;;;25.70;47.50;;;;;;4993626;28;20403;-58
2023/07/13 11:05:27;;;;;;;2.53;0.60;;;25.70;47.30;;;;;;4978635;28;20025;-59
2023/07/13 11:08:01;;;;;;;0.77;0.60;;;25.70;47.40;;;;;;4976834;28;20023;-58
2023/07/13 11:10:54;;;;;;;1.20;0.50;;;25.60;47.00;;;;;;4978782;28;20034;-59
2023/07/13 11:13:58;;;;;;;1.27;0.50;;;25.40;47.30;;;;;;4978868;28;20050;-58
2023/07/13 11:16:23;;;;;;;1.38;0.50;;;25.40;47.70;;;;;;4983527;28;20031;-58
2023/07/13 11:19:12;;;;;;;3.28;0.50;;;25.40;47.90;;;;;;4978407;28;20034;-58
2023/07/13 11:22:13;;;;;;;1.48;0.50;;;25.40;48.70;;;;;;4977962;28;20066;-57
2023/07/13 11:25:00;;;;;;;1.77;0.73;;;25.60;48.90;;;;;;4975038;28;20452;-57
2023/07/13 11:27:36;;;;;;;1.42;0.73;;;25.90;48.60;;;;;;4976463;28;20607;-58
2023/07/13 11:30:21;;;;;;;0.95;0.40;;;26.10;48.80;;;;;;4978749;28;20035;-58
2023/07/13 11:33:12;;;;;;;0.55;0.50;;;26.30;47.40;;;;;;4978976;28;20033;-55
2023/07/13 11:35:47;;;;;;;1.42;0.60;;;26.30;47.20;;;;;;4976393;28;20031;-58
2023/07/13 11:38:21;;;;;;;2.33;0.55;;;26.30;46.30;;;;;;4976775;28;20022;-59
2023/07/13 11:40:48;;;;;;;1.70;0.55;;;26.30;47.50;;;;;;4977708;28;20427;-58
2023/07/13 11:43:16;;;;;;;1.27;0.60;;;26.30;46.70;;;;;;4975673;28;20031;-58
2023/07/13 11:45:42;;;;;;;2.05;0.60;;;26.40;47.40;;;;;;4973227;28;20034;-58
2023/07/13 11:48:25;;;;;;;1.30;0.57;;;26.40;46.90;;;;;;4976251;28;20031;-57
2023/07/13 11:51:05;;;;;;;0.57;0.40;;;26.30;46.50;;;;;;4978723;28;20039;-57
2023/07/13 11:53:38;;;;;;;2.20;0.60;;;26.20;46.80;;;;;;4981528;28;20759;-57
2023/07/13 11:56:03;;;;;;;1.13;0.47;;;26.30;46.40;;;;;;4979769;28;20029;-56
2023/07/13 11:58:30;;;;;;;2.10;0.63;;;26.30;45.80;;;;;;4981571;28;20030;-57
2023/07/13 12:00:58;;;;;;;0.65;0.50;;;26.40;46.30;;;;;;4979292;28;20027;-58
2023/07/13 12:03:25;;;;;;;0.85;0.50;;;26.50;46.60;;;;;;4978654;28;20026;-56
2023/07/13 12:06:00;;;;;;;0.65;0.40;;;26.50;46.40;;;;;;4976122;28;20089;-57
2023/07/13 12:08:27;;;;;;;1.58;0.55;;;26.80;45.90;;;;;;4978897;28;20422;-58
2023/07/13 12:11:13;;;;;;;2.35;0.50;;;27.00;45.50;;;;;;4976541;28;20479;-57
2023/07/13 12:13:39;;;;;;;0.93;0.50;;;27.10;44.40;;;;;;4979880;28;20034;-56
2023/07/13 12:16:24;;;;;;;1.67;0.50;;;27.10;44.40;;;;;;4974870;28;20057;-58
2023/07/13 12:18:53;;;;;;;0.45;0.40;;;27.10;44.40;;;;;;4975067;28;20048;-58
2023/07/13 12:21:21;;;;;;;1.27;0.43;;;27.10;44.00;;;;;;4978681;28;20030;-58
2023/07/13 12:23:49;;;;;;;0.95;0.47;;;27.10;44.80;;;;;;4972648;28;20425;-58
2023/07/13 12:26:17;;;;;;;3.88;0.60;;;27.20;44.70;;;;;;4978534;28;20502;-59
2023/07/13 12:28:56;;;;;;;1.25;0.50;;;27.30;44.10;;;;;;4977020;28;20093;-57
2023/07/13 12:31:38;;;;;;;1.73;0.55;;;27.50;44.40;;;;;;4979382;28;20045;-57
2023/07/13 12:34:15;;;;;;;0.88;0.45;;;27.50;43.50;;;;;;4978620;28;20130;-58
2023/07/13 12:37:02;;;;;;;0.90;0.50;;;27.40;44.00;;;;;;4974023;28;20039;-58
2023/07/13 12:39:46;;;;;;;1.00;0.60;;;27.30;44.60;;;;;;4976187;28;20034;-58
2023/07/13 12:42:26;;;;;;;2.47;0.60;;;27.20;44.50;;;;;;4977309;28;20058;-58
2023/07/13 12:45:01;;;;;;;1.10;0.70;;;27.30;43.80;;;;;;4978150;28;20882;-59
2023/07/13 12:47:28;;;;;;;0.88;0.50;;;27.30;44.50;;;;;;4977964;28;20038;-58
2023/07/13 12:49:57;;;;;;;2.05;0.50;;;27.40;45.10;;;;;;4978385;28;20367;-59
2023/07/13 12:52:35;;;;;;;2.65;0.50;;;27.60;43.90;;;;;;4977063;28;20050;-58
2023/07/13 12:55:08;;;;;;;4.32;0.57;;;27.70;44.60;;;;;;4982368;28;20080;-58
2023/07/13 12:57:40;;;;;;;0.88;0.60;;;27.80;43.90;;;;;;4979686;28;20515;-58
2023/07/13 13:00:19;;;;;;;0.98;0.50;;;27.90;44.30;;;;;;4980232;28;20069;-57